Sedalia, Indiana
Current Conditions -  °F | °C
As of 8:15 PM on Tuesday 21 Oct 2014 (Local Time) from KFKR Reporting Station
Clear Clear  
Wind Chill: 41°   Ceiling: Unl
Heat Index: 46°   Visibility: 10mi
Dew Point: 42°   Wind: 9mph
Humidity: 87%   Direction: 320°NW
Pressure: 30.19"   Gusts: NA
Location:  40.42°N, 86.51°W
Report Text: KFKR 220015Z AUTO 32008KT 10SM CLR 08/06 A3019 RMK AO2 T00770056
Loading
Personal Weather Stations






























Interactive Weather Map
Tropical Storm Tracking
New forecast layout! Learn more

10-Day Weather Forecast

Advertisements
Track Severe Weather on mobile